Agia Marina Aiginis — SX8552 — position and weather

sailwx.info

Track history (hours):
 
Tides and Currents Weather Stations Pressure Air Temp Water Temp Dewpoint Dewpoint Depression Visibility Wind Speed Wind Dir Waves Ship Positions

Agia Marina Aiginis

Last reported at 2017-Sep-19 11:47 UTC. Time now 2017-Nov-23 05:49 UTC.
Position N 37°57' E 023°33'.
Warning: this ship's position is months out of date.

Length 42 m.

Type: Passenger vessel. MMSI: 237320200.

Date/timePositionNaut miles runAvg speedWind from/ knotsBaromVisibWave heightAir tempDewpointWater temp
2017-Sep-19 11:47N 37°57' E 023°33'0 0.0
2017-Sep-19 11:30N 37°57' E 023°33'0 0.0
2017-Sep-19 11:00N 37°57' E 023°33'0 0.0
2017-Sep-19 10:30N 37°57' E 023°33'0 0.1
2017-Sep-19 10:00N 37°57' E 023°33'4 7.6
2017-Sep-19 09:30N 37°56' E 023°37'1 2.0
2017-Sep-19 09:00N 37°57' E 023°39'0 0.0
2017-Sep-19 08:30N 37°57' E 023°39'0 0.0
2017-Sep-19 08:01N 37°57' E 023°39'0 0.0
2017-Sep-19 07:30N 37°57' E 023°39'0 0.0
2017-Sep-19 07:00N 37°57' E 023°39'0 0.0
2017-Sep-19 06:31N 37°57' E 023°39'0 0.0
2017-Sep-19 06:00N 37°57' E 023°39'0 0.0
2017-Sep-19 05:30N 37°57' E 023°39'0 0.0
2017-Sep-19 05:00N 37°57' E 023°39'0 0.0
2017-Sep-19 04:31N 37°57' E 023°39'0 0.0
2017-Sep-19 04:01N 37°57' E 023°39'0 0.0
2017-Sep-19 03:31N 37°57' E 023°39'0 0.0
2017-Sep-19 03:01N 37°57' E 023°39'0 0.0
2017-Sep-19 02:31N 37°57' E 023°39'0 0.0
2017-Sep-19 02:01N 37°57' E 023°39'0 0.0
2017-Sep-19 01:31N 37°57' E 023°39'0 0.0
2017-Sep-19 01:01N 37°57' E 023°39'0 0.0
2017-Sep-19 00:31N 37°57' E 023°39'0 0.0
2017-Sep-19 00:01N 37°57' E 023°39'0 0.0
2017-Sep-18 23:30N 37°57' E 023°39'0 0.0
2017-Sep-18 23:01N 37°57' E 023°39'0 0.0
2017-Sep-18 22:30N 37°57' E 023°39'0 0.0
2017-Sep-18 22:01N 37°57' E 023°39'0 0.0
2017-Sep-18 21:30N 37°57' E 023°39'0 0.0
2017-Sep-18 21:00N 37°57' E 023°39'0 0.0
2017-Sep-18 20:30N 37°57' E 023°39'0 0.0
2017-Sep-18 20:00N 37°57' E 023°39'0 0.0
2017-Sep-18 19:30N 37°57' E 023°39'0 0.0
2017-Sep-18 19:00N 37°57' E 023°39'0 0.0
2017-Sep-18 18:30N 37°57' E 023°39'0 0.0
2017-Sep-18 18:00N 37°57' E 023°39'0 0.0
2017-Sep-18 17:31N 37°57' E 023°39'0 0.0
2017-Sep-18 17:01N 37°57' E 023°39'0 0.0
2017-Sep-18 16:31N 37°57' E 023°39'0 0.0
2017-Sep-18 16:01N 37°57' E 023°39'0 0.0
2017-Sep-18 15:30N 37°57' E 023°39'0 0.0
2017-Sep-18 15:00N 37°57' E 023°39'0 0.0
2017-Sep-18 14:30N 37°57' E 023°39'0 0.0
2017-Sep-18 14:00N 37°57' E 023°39'0 0.0
2017-Sep-18 13:31N 37°57' E 023°39'0 0.9
2017-Sep-18 13:00N 37°56' E 023°38'612.6
2017-Sep-18 12:31N 37°51' E 023°33'611.9
2017-Sep-18 12:01N 37°46' E 023°29'1 2.9
2017-Sep-18 11:31N 37°48' E 023°30'713.0
2017-Sep-18 11:00N 37°53' E 023°35'5 9.3
2017-Sep-18 10:30N 37°57' E 023°39'0 0.0
2017-Sep-18 10:00N 37°57' E 023°39'0 0.0
2017-Sep-18 09:30N 37°57' E 023°39'0 0.0
2017-Sep-18 09:01N 37°57' E 023°39'0 0.0
2017-Sep-18 08:30N 37°57' E 023°39'0 0.0
2017-Sep-18 08:01N 37°57' E 023°39'0 0.0
2017-Sep-18 07:30N 37°57' E 023°39'0 0.8
2017-Sep-18 07:01N 37°57' E 023°38'712.6
2017-Sep-18 06:29N 37°51' E 023°33'611.8
2017-Sep-18 06:01N 37°46' E 023°29'4 7.2
2017-Sep-18 05:31N 37°49' E 023°32'713.0
2017-Sep-18 05:00N 37°55' E 023°36'3 5.1
2017-Sep-18 04:30N 37°57' E 023°39'0 0.0
2017-Sep-18 04:00N 37°57' E 023°39'0 0.0
2017-Sep-18 03:30N 37°57' E 023°39'0 0.0
2017-Sep-18 03:00N 37°57' E 023°39'0 0.0
2017-Sep-18 02:30N 37°57' E 023°39'0 0.0
2017-Sep-18 02:01N 37°57' E 023°39'0 0.0
2017-Sep-18 01:30N 37°57' E 023°39'0 0.0
2017-Sep-18 01:00N 37°57' E 023°39'0 0.0
2017-Sep-18 00:30N 37°57' E 023°39'0 0.0
2017-Sep-18 00:01N 37°57' E 023°39'0 0.0
2017-Sep-17 23:31N 37°57' E 023°39'0 0.0
2017-Sep-17 23:01N 37°57' E 023°39'0 0.0
2017-Sep-17 22:30N 37°57' E 023°39'0 0.0
2017-Sep-17 22:00N 37°57' E 023°39'0 0.0
2017-Sep-17 21:30N 37°57' E 023°39'0 0.0
2017-Sep-17 21:00N 37°57' E 023°39'0 0.0
2017-Sep-17 20:31N 37°57' E 023°39'0 0.0
2017-Sep-17 20:01N 37°57' E 023°39'0 0.0
2017-Sep-17 19:31N 37°57' E 023°39'0 0.0
2017-Sep-17 19:01N 37°57' E 023°39'0 0.0
2017-Sep-17 18:30N 37°57' E 023°39'0 0.0
2017-Sep-17 18:01N 37°57' E 023°39'0 0.0
2017-Sep-17 17:31N 37°57' E 023°39'1 1.4
2017-Sep-17 17:01N 37°56' E 023°38'612.2
2017-Sep-17 16:30N 37°51' E 023°33'611.8
2017-Sep-17 16:01N 37°46' E 023°29'0 0.6
2017-Sep-17 15:30N 37°47' E 023°29'613.0
2017-Sep-17 15:01N 37°52' E 023°34'611.8
2017-Sep-17 14:31N 37°57' E 023°39'0 0.0
2017-Sep-17 14:01N 37°57' E 023°39'0 0.0
2017-Sep-17 13:30N 37°57' E 023°39'1 1.9
2017-Sep-17 13:01N 37°56' E 023°37'611.6
2017-Sep-17 12:31N 37°51' E 023°33'612.0
2017-Sep-17 12:00N 37°46' E 023°29'1 1.2
2017-Sep-17 11:31N 37°47' E 023°30'713.0
2017-Sep-17 11:01N 37°52' E 023°34'611.0
2017-Sep-17 10:30N 37°57' E 023°39'0 0.6
2017-Sep-17 10:00N 37°57' E 023°38'612.5
2017-Sep-17 09:31N 37°52' E 023°34'612.2
2017-Sep-17 09:00N 37°46' E 023°29'0 0.7
2017-Sep-17 08:30N 37°47' E 023°29'612.8
2017-Sep-17 08:01N 37°52' E 023°34'611.8
2017-Sep-17 07:31N 37°57' E 023°39'0 0.0
2017-Sep-17 07:01N 37°57' E 023°39'0 0.0
2017-Sep-17 06:31N 37°57' E 023°39'0 0.0
2017-Sep-17 06:00N 37°57' E 023°39'0 0.0
2017-Sep-17 05:30N 37°57' E 023°39'0 0.0
2017-Sep-17 05:01N 37°57' E 023°39'0 0.0
2017-Sep-17 04:30N 37°57' E 023°39'0 0.0
2017-Sep-17 04:01N 37°57' E 023°39'0 0.0
2017-Sep-17 03:30N 37°57' E 023°39'0 0.0
2017-Sep-17 03:00N 37°57' E 023°39'0 0.0
2017-Sep-17 02:31N 37°57' E 023°39'0 0.0
2017-Sep-17 02:00N 37°57' E 023°39'0 0.0
2017-Sep-17 01:31N 37°57' E 023°39'0 0.0
2017-Sep-17 01:00N 37°57' E 023°39'0 0.0
2017-Sep-17 00:31N 37°57' E 023°39'0 0.0
2017-Sep-17 00:00N 37°57' E 023°39'0 0.0
2017-Sep-16 23:31N 37°57' E 023°39'0 0.0
2017-Sep-16 23:01N 37°57' E 023°39'0 0.0
2017-Sep-16 22:30N 37°57' E 023°39'0 0.0
2017-Sep-16 22:00N 37°57' E 023°39'0 0.0
2017-Sep-16 21:30N 37°57' E 023°39'0 0.0
2017-Sep-16 21:01N 37°57' E 023°39'0 0.0
2017-Sep-16 20:31N 37°57' E 023°39'0 0.0
2017-Sep-16 20:01N 37°57' E 023°39'0 0.0
2017-Sep-16 19:31N 37°57' E 023°39'0 0.0
2017-Sep-16 19:00N 37°57' E 023°39'0 0.0
2017-Sep-16 18:31N 37°57' E 023°39'0 0.0
2017-Sep-16 18:00N 37°57' E 023°39'0 0.0
2017-Sep-16 17:30N 37°57' E 023°39'0 0.0
2017-Sep-16 17:01N 37°57' E 023°39'0 0.0
2017-Sep-16 16:31N 37°57' E 023°39'0 0.0
2017-Sep-16 16:00N 37°57' E 023°39'0 0.0
2017-Sep-16 15:31N 37°57' E 023°39'0 0.0
2017-Sep-16 15:01N 37°57' E 023°39'0 0.0
2017-Sep-16 14:30N 37°57' E 023°39'0 0.0
2017-Sep-16 14:00N 37°57' E 023°39'0 0.0
2017-Sep-16 13:30N 37°57' E 023°39'1 1.0
2017-Sep-16 13:01N 37°56' E 023°38'612.6
2017-Sep-16 12:30N 37°51' E 023°33'611.8
2017-Sep-16 12:01N 37°46' E 023°29'1 1.1
2017-Sep-16 11:30N 37°47' E 023°30'612.8
2017-Sep-16 11:01N 37°52' E 023°34'611.4
2017-Sep-16 10:30N 37°57' E 023°39'1 1.5
2017-Sep-16 10:01N 37°56' E 023°38'612.9
2017-Sep-16 09:31N 37°51' E 023°33'611.0
2017-Sep-16 09:01N 37°46' E 023°29'1 1.1
2017-Sep-16 08:31N 37°47' E 023°30'612.7
2017-Sep-16 08:00N 37°52' E 023°34'611.4
2017-Sep-16 07:31N 37°57' E 023°39'0 0.0
2017-Sep-16 07:01N 37°57' E 023°39'0 0.0
2017-Sep-16 06:30N 37°57' E 023°39'0 0.0
2017-Sep-16 06:01N 37°57' E 023°39'0 0.0
2017-Sep-16 05:30N 37°57' E 023°39'0 0.0
2017-Sep-16 05:01N 37°57' E 023°39'0 0.0
2017-Sep-16 04:31N 37°57' E 023°39'0 0.0
2017-Sep-16 04:00N 37°57' E 023°39'0 0.0
2017-Sep-16 03:31N 37°57' E 023°39'0 0.0
2017-Sep-16 03:01N 37°57' E 023°39'0 0.0
2017-Sep-16 02:31N 37°57' E 023°39'0 0.0
2017-Sep-16 02:00N 37°57' E 023°39'0 0.0
2017-Sep-16 01:31N 37°57' E 023°39'0 0.0
2017-Sep-16 01:00N 37°57' E 023°39'0 0.0
2017-Sep-16 00:31N 37°57' E 023°39'0 0.0
2017-Sep-16 00:01N 37°57' E 023°39'0 0.0
2017-Sep-15 23:30N 37°57' E 023°39'0 0.0
2017-Sep-15 23:01N 37°57' E 023°39'0 0.0
2017-Sep-15 22:30N 37°57' E 023°39'0 0.0
2017-Sep-15 22:00N 37°57' E 023°39'0 0.0
2017-Sep-15 21:30N 37°57' E 023°39'0 0.0
2017-Sep-15 21:01N 37°57' E 023°39'0 0.0
2017-Sep-15 20:30N 37°57' E 023°39'0 0.0
2017-Sep-15 20:00N 37°57' E 023°39'0 0.0
2017-Sep-15 19:30N 37°57' E 023°39'0 0.0
2017-Sep-15 19:00N 37°57' E 023°39'0 0.0
2017-Sep-15 18:30N 37°57' E 023°39'0 0.0
2017-Sep-15 18:01N 37°57' E 023°39'0 0.0
2017-Sep-15 17:31N 37°57' E 023°39'0 0.7
2017-Sep-15 17:00N 37°57' E 023°38'612.3
2017-Sep-15 16:31N 37°52' E 023°33'612.4
2017-Sep-15 16:01N 37°46' E 023°29'0 0.7
2017-Sep-15 15:31N 37°47' E 023°29'612.7
2017-Sep-15 15:01N 37°52' E 023°33'611.9
2017-Sep-15 14:30N 37°57' E 023°39'0 0.0
2017-Sep-15 14:00N 37°57' E 023°39'0 0.0
2017-Sep-15 13:31N 37°57' E 023°39'0 0.8
2017-Sep-15 13:00N 37°57' E 023°38'612.4
2017-Sep-15 12:30N 37°51' E 023°33'612.1
2017-Sep-15 12:00N 37°46' E 023°29'1 1.3
2017-Sep-15 11:31N 37°47' E 023°30'612.7
2017-Sep-15 11:00N 37°52' E 023°34'611.2
2017-Sep-15 10:31N 37°57' E 023°39'1 1.1
2017-Sep-15 10:01N 37°56' E 023°38'612.0
2017-Sep-15 09:31N 37°52' E 023°34'612.2
2017-Sep-15 09:00N 37°46' E 023°29'0 0.9
2017-Sep-15 08:31N 37°47' E 023°30'612.7
2017-Sep-15 08:00N 37°52' E 023°34'611.6
2017-Sep-15 07:31N 37°57' E 023°39'0 0.0
2017-Sep-15 07:01N 37°57' E 023°39'0 0.0
2017-Sep-15 06:31N 37°57' E 023°39'0 0.0
2017-Sep-15 06:01N 37°57' E 023°39'0 0.0
2017-Sep-15 05:31N 37°57' E 023°39'0 0.0
2017-Sep-15 05:00N 37°57' E 023°39'0 0.0
2017-Sep-15 04:30N 37°57' E 023°39'0 0.0
2017-Sep-15 04:00N 37°57' E 023°39'0 0.0
2017-Sep-15 03:31N 37°57' E 023°39'0 0.0
2017-Sep-15 03:00N 37°57' E 023°39'0 0.0
2017-Sep-15 02:31N 37°57' E 023°39'0 0.0
2017-Sep-15 02:00N 37°57' E 023°39'0 0.0
2017-Sep-15 01:30N 37°57' E 023°39'0 0.0
2017-Sep-15 01:01N 37°57' E 023°39'0 0.0
2017-Sep-15 00:30N 37°57' E 023°39'0 0.0
2017-Sep-15 00:00N 37°57' E 023°39'0 0.0
2017-Sep-14 23:30N 37°57' E 023°39'0 0.0
2017-Sep-14 23:00N 37°57' E 023°39'0 0.0
2017-Sep-14 22:30N 37°57' E 023°39'0 0.0
2017-Sep-14 22:00N 37°57' E 023°39'0 0.0
2017-Sep-14 21:30N 37°57' E 023°39'0 0.0
2017-Sep-14 21:01N 37°57' E 023°39'0 0.0
2017-Sep-14 20:31N 37°57' E 023°39'0 0.0
2017-Sep-14 20:00N 37°57' E 023°39'0 0.0
2017-Sep-14 19:31N 37°57' E 023°39'0 0.0
2017-Sep-14 19:00N 37°57' E 023°39'0 0.0
2017-Sep-14 18:30N 37°57' E 023°39'0 0.0
2017-Sep-14 18:00N 37°57' E 023°39'0 0.0
2017-Sep-14 17:31N 37°57' E 023°39'0 0.0
2017-Sep-14 17:00N 37°57' E 023°39'0 0.0
2017-Sep-14 16:30N 37°57' E 023°39'0 0.0
2017-Sep-14 16:00N 37°57' E 023°39'0 0.0
2017-Sep-14 15:31N 37°57' E 023°39'0 0.0
2017-Sep-14 15:00N 37°57' E 023°39'0 0.0
2017-Sep-14 14:30N 37°57' E 023°39'0 0.0
2017-Sep-14 14:01N 37°57' E 023°39'0 0.0
2017-Sep-14 13:30N 37°57' E 023°39'0 0.5
2017-Sep-14 13:00N 37°57' E 023°38'612.7
2017-Sep-14 12:30N 37°51' E 023°33'612.1
2017-Sep-14 12:01N 37°46' E 023°29'1 1.7
2017-Sep-14 11:31N 37°47' E 023°30'612.7
2017-Sep-14 11:01N 37°52' E 023°34'510.8
2017-Sep-14 10:30N 37°57' E 023°39'0 0.0
2017-Sep-14 10:00N 37°57' E 023°39'0 0.0
2017-Sep-14 09:31N 37°57' E 023°39'0 0.0
2017-Sep-14 09:00N 37°57' E 023°39'0 0.0
2017-Sep-14 08:30N 37°57' E 023°39'0 0.0
2017-Sep-14 08:00N 37°57' E 023°39'0 0.0
2017-Sep-14 07:30N 37°57' E 023°39'0 0.6
2017-Sep-14 07:00N 37°57' E 023°38'612.6
2017-Sep-14 06:31N 37°52' E 023°33'612.3
2017-Sep-14 06:01N 37°46' E 023°29'4 8.4
2017-Sep-14 05:30N 37°50' E 023°32'612.8
2017-Sep-14 05:01N 37°55' E 023°36'2 2.4
2017-Sep-14 04:08N 37°57' E 023°39'0 0.0
2017-Sep-14 03:14N 37°57' E 023°39'0 0.0
2017-Sep-14 03:00N 37°57' E 023°39'0 0.0
2017-Sep-14 02:30N 37°57' E 023°39'0 0.0
2017-Sep-14 02:00N 37°57' E 023°39'0 0.0
2017-Sep-14 01:31N 37°57' E 023°39'0 0.0
2017-Sep-14 00:53N 37°57' E 023°39'0 0.0
2017-Sep-14 00:31N 37°57' E 023°39'0 0.0
2017-Sep-13 23:47N 37°57' E 023°39'0 0.0
2017-Sep-13 22:20N 37°57' E 023°39'0 0.0
2017-Sep-13 21:56N 37°57' E 023°39'0 0.0
2017-Sep-13 21:14N 37°57' E 023°39'0 0.0
2017-Sep-13 20:39N 37°57' E 023°39'0 0.0
2017-Sep-13 20:28N 37°57' E 023°39'0 0.0
2017-Sep-13 19:08N 37°57' E 023°39'0 0.0
2017-Sep-13 18:44N 37°57' E 023°39'0 0.0
2017-Sep-13 18:31N 37°57' E 023°39'0 0.0
2017-Sep-13 18:00N 37°57' E 023°39'0 0.0
2017-Sep-13 17:27N 37°57' E 023°39'0 0.0
2017-Sep-13 16:54N 37°57' E 023°39'0 0.0
2017-Sep-13 16:26N 37°57' E 023°39'0 0.0
2017-Sep-13 14:36N 37°57' E 023°39'0 0.0
2017-Sep-13 14:16N 37°57' E 023°39'0 0.0
2017-Sep-13 13:47N 37°57' E 023°39'0 0.0
2017-Sep-13 13:15N 37°57' E 023°39'0 0.4
2017-Sep-13 13:00N 37°57' E 023°38'612.6
2017-Sep-13 12:31N 37°52' E 023°34'612.4
2017-Sep-13 12:00N 37°46' E 023°29'1 1.2
2017-Sep-13 11:31N 37°47' E 023°30'612.9
2017-Sep-13 11:01N 37°52' E 023°34'611.2
2017-Sep-13 10:31N 37°57' E 023°39'0 0.0
2017-Sep-13 10:00N 37°57' E 023°39'0 0.0
2017-Sep-13 09:29N 37°57' E 023°39'0 0.0
2017-Sep-13 08:59N 37°57' E 023°39'0 0.0
2017-Sep-13 08:30N 37°57' E 023°39'0 0.0
2017-Sep-13 08:00N 37°57' E 023°39'0 0.0
2017-Sep-13 07:29N 37°57' E 023°39'1 1.1
2017-Sep-13 07:00N 37°56' E 023°38'612.6
2017-Sep-13 06:31N 37°51' E 023°33'611.7
2017-Sep-13 06:00N 37°46' E 023°29'4 7.1
2017-Sep-13 05:30N 37°49' E 023°32'613.0
2017-Sep-13 05:01N 37°55' E 023°36'3 2.5
2017-Sep-13 03:56N 37°57' E 023°39'0 0.0
2017-Sep-13 03:13N 37°57' E 023°39'0 0.0
2017-Sep-13 02:56N 37°57' E 023°39'0 0.0
2017-Sep-13 02:17N 37°57' E 023°39'0 0.0
2017-Sep-13 01:59N 37°57' E 023°39'0 0.0
2017-Sep-13 01:19N 37°57' E 023°39'0 0.0
2017-Sep-13 00:53N 37°57' E 023°39'0 0.0
2017-Sep-13 00:26N 37°57' E 023°39'0 0.0
2017-Sep-12 23:46N 37°57' E 023°39'0 0.0
2017-Sep-12 23:31N 37°57' E 023°39'0 0.0
2017-Sep-12 23:00N 37°57' E 023°39'0 0.0
2017-Sep-12 22:30N 37°57' E 023°39'0 0.0
2017-Sep-12 22:00N 37°57' E 023°39'0 0.0
2017-Sep-12 21:31N 37°57' E 023°39'0 0.0
2017-Sep-12 21:00N 37°57' E 023°39'0 0.0
2017-Sep-12 20:30N 37°57' E 023°39'0 0.0
2017-Sep-12 20:00N 37°57' E 023°39'0 0.0
2017-Sep-12 19:30N 37°57' E 023°39'0 0.0
2017-Sep-12 19:01N 37°57' E 023°39'0 0.0
2017-Sep-12 18:30N 37°57' E 023°39'0 0.0
2017-Sep-12 18:00N 37°57' E 023°39'0 0.0
2017-Sep-12 17:31N 37°57' E 023°39'0 0.0
2017-Sep-12 17:00N 37°57' E 023°39'0 0.0
2017-Sep-12 16:31N 37°57' E 023°39'0 0.0
2017-Sep-12 16:00N 37°57' E 023°39'0 0.0
2017-Sep-12 15:31N 37°57' E 023°39'0 0.0
2017-Sep-12 15:00N 37°57' E 023°39'0 0.0
2017-Sep-12 14:31N 37°57' E 023°39'0 0.0
2017-Sep-12 14:00N 37°57' E 023°39'0 0.0
2017-Sep-12 13:30N 37°57' E 023°39'0 0.5
2017-Sep-12 13:00N 37°57' E 023°38'612.7
2017-Sep-12 12:31N 37°52' E 023°33'612.1
2017-Sep-12 12:00N 37°46' E 023°29'0 1.0
2017-Sep-12 11:31N 37°47' E 023°30'713.1
2017-Sep-12 11:00N 37°52' E 023°34'611.0
2017-Sep-12 10:30N 37°57' E 023°39'0 0.0
2017-Sep-12 10:00N 37°57' E 023°39'0 0.0
2017-Sep-12 09:31N 37°57' E 023°39'0 0.0
2017-Sep-12 09:01N 37°57' E 023°39'0 0.0
2017-Sep-12 08:30N 37°57' E 023°39'0 0.0
2017-Sep-12 08:00N 37°57' E 023°39'0 0.0
2017-Sep-12 07:30N 37°57' E 023°39'0 0.9
2017-Sep-12 07:01N 37°56' E 023°38'712.4
2017-Sep-12 06:27N 37°51' E 023°33'511.9
2017-Sep-12 06:01N 37°46' E 023°29'4 7.5
2017-Sep-12 05:31N 37°49' E 023°32'713.2
2017-Sep-12 05:00N 37°55' E 023°36'2 4.6
2017-Sep-12 04:30N 37°57' E 023°39'0 0.0
2017-Sep-12 04:01N 37°57' E 023°39'0 0.0
2017-Sep-12 03:31N 37°57' E 023°39'0 0.0
2017-Sep-12 03:01N 37°57' E 023°39'0 0.0
2017-Sep-12 02:31N 37°57' E 023°39'0 0.0
2017-Sep-12 02:01N 37°57' E 023°39'0 0.0
2017-Sep-12 01:30N 37°57' E 023°39'0 0.0
2017-Sep-12 01:01N 37°57' E 023°39'0 0.0
2017-Sep-12 00:31N 37°57' E 023°39'0 0.0
2017-Sep-12 00:01N 37°57' E 023°39'0 0.0
2017-Sep-11 23:31N 37°57' E 023°39'0 0.0
2017-Sep-11 23:01N 37°57' E 023°39'0 0.0
2017-Sep-11 22:31N 37°57' E 023°39'0 0.0
2017-Sep-11 22:01N 37°57' E 023°39'0 0.0
2017-Sep-11 21:30N 37°57' E 023°39'0 0.0
2017-Sep-11 21:00N 37°57' E 023°39'0 0.0
2017-Sep-11 20:30N 37°57' E 023°39'0 0.0
2017-Sep-11 20:00N 37°57' E 023°39'0 0.0
2017-Sep-11 19:30N 37°57' E 023°39'0 0.0
2017-Sep-11 19:00N 37°57' E 023°39'0 0.0
2017-Sep-11 18:30N 37°57' E 023°39'0 0.0
2017-Sep-11 18:00N 37°57' E 023°39'0 0.0
2017-Sep-11 17:30N 37°57' E 023°39'0 0.0
2017-Sep-11 17:00N 37°57' E 023°39'0 0.0
2017-Sep-11 16:30N 37°57' E 023°39'0 0.0
2017-Sep-11 16:00N 37°57' E 023°39'0 0.0
2017-Sep-11 15:30N 37°57' E 023°39'0 0.0
2017-Sep-11 15:00N 37°57' E 023°39'0 0.0
2017-Sep-11 14:30N 37°57' E 023°39'0 0.0
2017-Sep-11 14:00N 37°57' E 023°39'0 0.0
2017-Sep-11 13:30N 37°57' E 023°39'0 0.5
2017-Sep-11 13:00N 37°57' E 023°38'612.5
2017-Sep-11 12:30N 37°52' E 023°33'612.4
2017-Sep-11 12:00N 37°46' E 023°29'1 2.0
2017-Sep-11 11:30N 37°47' E 023°30'613.1
2017-Sep-11 11:00N 37°53' E 023°34'510.3
2017-Sep-11 10:30N 37°57' E 023°39'0 0.0
2017-Sep-11 10:00N 37°57' E 023°39'0 0.0
2017-Sep-11 09:30N 37°57' E 023°39'0 0.0
2017-Sep-11 09:00N 37°57' E 023°39'0 0.0
2017-Sep-11 08:30N 37°57' E 023°39'0 0.0
2017-Sep-11 08:00N 37°57' E 023°39'0 0.0
2017-Sep-11 07:30N 37°57' E 023°39'1 1.0
2017-Sep-11 07:00N 37°56' E 023°38'912.6
2017-Sep-11 06:18N 37°49' E 023°31'310.2
2017-Sep-11 05:59N 37°46' E 023°29'3 7.1
2017-Sep-11 05:30N 37°49' E 023°31'713.3
2017-Sep-11 05:00N 37°55' E 023°36'3 5.2
2017-Sep-11 04:30N 37°57' E 023°39'0 0.0
2017-Sep-11 04:00N 37°57' E 023°39'0 0.0
2017-Sep-11 03:30N 37°57' E 023°39'0 0.0
2017-Sep-11 03:00N 37°57' E 023°39'0 0.0
2017-Sep-11 02:30N 37°57' E 023°39'0 0.0
2017-Sep-11 02:00N 37°57' E 023°39'0 0.0
2017-Sep-11 01:30N 37°57' E 023°39'0 0.0
2017-Sep-11 01:00N 37°57' E 023°39'0 0.0
2017-Sep-11 00:30N 37°57' E 023°39'0 0.0
2017-Sep-11 00:00N 37°57' E 023°39'0 0.0
2017-Sep-10 23:30N 37°57' E 023°39'0 0.0
2017-Sep-10 23:00N 37°57' E 023°39'0 0.0
2017-Sep-10 22:30N 37°57' E 023°39'0 0.0
2017-Sep-10 22:00N 37°57' E 023°39'0 0.0
2017-Sep-10 21:30N 37°57' E 023°39'0 0.0
2017-Sep-10 21:00N 37°57' E 023°39'0 0.0
2017-Sep-10 20:30N 37°57' E 023°39'0 0.0
2017-Sep-10 20:00N 37°57' E 023°39'0 0.0
2017-Sep-10 19:30N 37°57' E 023°39'0 0.0
2017-Sep-10 19:00N 37°57' E 023°39'0 0.0
2017-Sep-10 18:30N 37°57' E 023°39'0 0.0
2017-Sep-10 18:00N 37°57' E 023°39'0 0.0
2017-Sep-10 17:30N 37°57' E 023°39'4 8.4
2017-Sep-10 17:00N 37°54' E 023°35'612.6
2017-Sep-10 16:30N 37°48' E 023°31'2 3.3
2017-Sep-10 16:00N 37°47' E 023°30'3 6.6
2017-Sep-10 15:30N 37°44' E 023°33'1 2.5
2017-Sep-10 15:00N 37°45' E 023°34'1211.9
2017-Sep-10 14:00N 37°57' E 023°39'0 0.0
2017-Sep-10 13:30N 37°57' E 023°39'0 0.0
2017-Sep-10 13:00N 37°57' E 023°39'0 0.0
2017-Sep-10 12:30N 37°57' E 023°39'0 0.0
2017-Sep-10 12:00N 37°57' E 023°39'0 0.0
2017-Sep-10 11:30N 37°57' E 023°39'0 0.0
2017-Sep-10 11:00N 37°57' E 023°39'0 0.0
2017-Sep-10 10:30N 37°57' E 023°39'611.1
2017-Sep-10 10:00N 37°53' E 023°34'612.9
2017-Sep-10 09:30N 37°47' E 023°30'2 3.5
2017-Sep-10 09:00N 37°47' E 023°32'2 4.6
2017-Sep-10 08:30N 37°45' E 023°32'4 7.9
2017-Sep-10 08:00N 37°48' E 023°35'713.2
2017-Sep-10 07:30N 37°54' E 023°37'3 5.4
2017-Sep-10 07:00N 37°57' E 023°39'0 0.0
2017-Sep-10 06:30N 37°57' E 023°39'0 0.0
2017-Sep-10 06:00N 37°57' E 023°39'0 0.0
2017-Sep-10 05:30N 37°57' E 023°39'0 0.0
2017-Sep-10 05:00N 37°57' E 023°39'0 0.0
2017-Sep-10 04:30N 37°57' E 023°39'0 0.0
2017-Sep-10 04:00N 37°57' E 023°39'0 0.0
2017-Sep-10 03:30N 37°57' E 023°39'0 0.0
2017-Sep-10 03:00N 37°57' E 023°39'0 0.0
2017-Sep-10 02:30N 37°57' E 023°39'0 0.0
2017-Sep-10 02:00N 37°57' E 023°39'0 0.0
2017-Sep-10 01:30N 37°57' E 023°39'0 0.0
2017-Sep-10 01:00N 37°57' E 023°39'0 0.0
2017-Sep-10 00:30N 37°57' E 023°39'0 0.0
2017-Sep-10 00:00N 37°57' E 023°39'0 0.0
2017-Sep-09 23:30N 37°57' E 023°39'0 0.0
2017-Sep-09 23:00N 37°57' E 023°39'0 0.0
2017-Sep-09 22:30N 37°57' E 023°39'0 0.0
2017-Sep-09 22:00N 37°57' E 023°39'0 0.0
2017-Sep-09 21:30N 37°57' E 023°39'0 0.0
2017-Sep-09 21:00N 37°57' E 023°39'0 0.0
2017-Sep-09 20:30N 37°57' E 023°39'0 0.0
2017-Sep-09 20:00N 37°57' E 023°39'0 0.0
2017-Sep-09 19:30N 37°57' E 023°39'0 0.0
2017-Sep-09 19:00N 37°57' E 023°39'0 0.0
2017-Sep-09 18:30N 37°57' E 023°39'0 0.0
2017-Sep-09 18:00N 37°57' E 023°39'0 0.0
2017-Sep-09 17:30N 37°57' E 023°39'0 0.0
2017-Sep-09 17:00N 37°57' E 023°39'0 0.0
2017-Sep-09 16:30N 37°57' E 023°39'510.8
2017-Sep-09 16:00N 37°53' E 023°34'713.1
2017-Sep-09 15:30N 37°47' E 023°30'1 1.4
2017-Sep-09 15:00N 37°47' E 023°31'3 5.4
2017-Sep-09 14:30N 37°45' E 023°32'2 4.6
2017-Sep-09 14:00N 37°47' E 023°33'3 6.2
2017-Sep-09 13:30N 37°47' E 023°30'613.0
2017-Sep-09 13:00N 37°53' E 023°34'510.8
2017-Sep-09 12:30N 37°57' E 023°39'0 0.0
2017-Sep-09 12:00N 37°57' E 023°39'  
Track history (hours):
 
Tides and Currents Weather Stations Pressure Air Temp Water Temp Dewpoint Dewpoint Depression Visibility Wind Speed Wind Dir Waves Ship Positions

Agia Marina Aiginis

Last reported at 2017-Sep-19 11:47 UTC. Time now 2017-Nov-23 05:49 UTC.
Position N 37°57' E 023°33'.
Warning: this ship's position is months out of date.

Length 42 m.

Type: Passenger vessel. MMSI: 237320200.

Date/timePositionNaut miles runAvg speedWind from/ knotsBaromVisibWave heightAir tempDewpointWater temp
2017-Sep-19 11:47N 37°57' E 023°33'0 0.0
2017-Sep-19 11:30N 37°57' E 023°33'0 0.0
2017-Sep-19 11:00N 37°57' E 023°33'0 0.0
2017-Sep-19 10:30N 37°57' E 023°33'0 0.1
2017-Sep-19 10:00N 37°57' E 023°33'4 7.6
2017-Sep-19 09:30N 37°56' E 023°37'1 2.0
2017-Sep-19 09:00N 37°57' E 023°39'0 0.0
2017-Sep-19 08:30N 37°57' E 023°39'0 0.0
2017-Sep-19 08:01N 37°57' E 023°39'0 0.0
2017-Sep-19 07:30N 37°57' E 023°39'0 0.0
2017-Sep-19 07:00N 37°57' E 023°39'0 0.0
2017-Sep-19 06:31N 37°57' E 023°39'0 0.0
2017-Sep-19 06:00N 37°57' E 023°39'0 0.0
2017-Sep-19 05:30N 37°57' E 023°39'0 0.0
2017-Sep-19 05:00N 37°57' E 023°39'0 0.0
2017-Sep-19 04:31N 37°57' E 023°39'0 0.0
2017-Sep-19 04:01N 37°57' E 023°39'0 0.0
2017-Sep-19 03:31N 37°57' E 023°39'0 0.0
2017-Sep-19 03:01N 37°57' E 023°39'0 0.0
2017-Sep-19 02:31N 37°57' E 023°39'0 0.0
2017-Sep-19 02:01N 37°57' E 023°39'0 0.0
2017-Sep-19 01:31N 37°57' E 023°39'0 0.0
2017-Sep-19 01:01N 37°57' E 023°39'0 0.0
2017-Sep-19 00:31N 37°57' E 023°39'0 0.0
2017-Sep-19 00:01N 37°57' E 023°39'0 0.0
2017-Sep-18 23:30N 37°57' E 023°39'0 0.0
2017-Sep-18 23:01N 37°57' E 023°39'0 0.0
2017-Sep-18 22:30N 37°57' E 023°39'0 0.0
2017-Sep-18 22:01N 37°57' E 023°39'0 0.0
2017-Sep-18 21:30N 37°57' E 023°39'0 0.0
2017-Sep-18 21:00N 37°57' E 023°39'0 0.0
2017-Sep-18 20:30N 37°57' E 023°39'0 0.0
2017-Sep-18 20:00N 37°57' E 023°39'0 0.0
2017-Sep-18 19:30N 37°57' E 023°39'0 0.0
2017-Sep-18 19:00N 37°57' E 023°39'0 0.0
2017-Sep-18 18:30N 37°57' E 023°39'0 0.0
2017-Sep-18 18:00N 37°57' E 023°39'0 0.0
2017-Sep-18 17:31N 37°57' E 023°39'0 0.0
2017-Sep-18 17:01N 37°57' E 023°39'0 0.0
2017-Sep-18 16:31N 37°57' E 023°39'0 0.0
2017-Sep-18 16:01N 37°57' E 023°39'0 0.0
2017-Sep-18 15:30N 37°57' E 023°39'0 0.0
2017-Sep-18 15:00N 37°57' E 023°39'0 0.0
2017-Sep-18 14:30N 37°57' E 023°39'0 0.0
2017-Sep-18 14:00N 37°57' E 023°39'0 0.0
2017-Sep-18 13:31N 37°57' E 023°39'0 0.9
2017-Sep-18 13:00N 37°56' E 023°38'612.6
2017-Sep-18 12:31N 37°51' E 023°33'611.9
2017-Sep-18 12:01N 37°46' E 023°29'1 2.9
2017-Sep-18 11:31N 37°48' E 023°30'713.0
2017-Sep-18 11:00N 37°53' E 023°35'5 9.3
2017-Sep-18 10:30N 37°57' E 023°39'0 0.0
2017-Sep-18 10:00N 37°57' E 023°39'0 0.0
2017-Sep-18 09:30N 37°57' E 023°39'0 0.0
2017-Sep-18 09:01N 37°57' E 023°39'0 0.0
2017-Sep-18 08:30N 37°57' E 023°39'0 0.0
2017-Sep-18 08:01N 37°57' E 023°39'0 0.0
2017-Sep-18 07:30N 37°57' E 023°39'0 0.8
2017-Sep-18 07:01N 37°57' E 023°38'712.6
2017-Sep-18 06:29N 37°51' E 023°33'611.8
2017-Sep-18 06:01N 37°46' E 023°29'4 7.2
2017-Sep-18 05:31N 37°49' E 023°32'713.0
2017-Sep-18 05:00N 37°55' E 023°36'3 5.1
2017-Sep-18 04:30N 37°57' E 023°39'0 0.0
2017-Sep-18 04:00N 37°57' E 023°39'0 0.0
2017-Sep-18 03:30N 37°57' E 023°39'0 0.0
2017-Sep-18 03:00N 37°57' E 023°39'0 0.0
2017-Sep-18 02:30N 37°57' E 023°39'0 0.0
2017-Sep-18 02:01N 37°57' E 023°39'0 0.0
2017-Sep-18 01:30N 37°57' E 023°39'0 0.0
2017-Sep-18 01:00N 37°57' E 023°39'0 0.0
2017-Sep-18 00:30N 37°57' E 023°39'0 0.0
2017-Sep-18 00:01N 37°57' E 023°39'0 0.0
2017-Sep-17 23:31N 37°57' E 023°39'0 0.0
2017-Sep-17 23:01N 37°57' E 023°39'0 0.0
2017-Sep-17 22:30N 37°57' E 023°39'0 0.0
2017-Sep-17 22:00N 37°57' E 023°39'0 0.0
2017-Sep-17 21:30N 37°57' E 023°39'0 0.0
2017-Sep-17 21:00N 37°57' E 023°39'0 0.0
2017-Sep-17 20:31N 37°57' E 023°39'0 0.0
2017-Sep-17 20:01N 37°57' E 023°39'0 0.0
2017-Sep-17 19:31N 37°57' E 023°39'0 0.0
2017-Sep-17 19:01N 37°57' E 023°39'0 0.0
2017-Sep-17 18:30N 37°57' E 023°39'0 0.0
2017-Sep-17 18:01N 37°57' E 023°39'0 0.0
2017-Sep-17 17:31N 37°57' E 023°39'1 1.4
2017-Sep-17 17:01N 37°56' E 023°38'612.2
2017-Sep-17 16:30N 37°51' E 023°33'611.8
2017-Sep-17 16:01N 37°46' E 023°29'0 0.6
2017-Sep-17 15:30N 37°47' E 023°29'613.0
2017-Sep-17 15:01N 37°52' E 023°34'611.8
2017-Sep-17 14:31N 37°57' E 023°39'0 0.0
2017-Sep-17 14:01N 37°57' E 023°39'0 0.0
2017-Sep-17 13:30N 37°57' E 023°39'1 1.9
2017-Sep-17 13:01N 37°56' E 023°37'611.6
2017-Sep-17 12:31N 37°51' E 023°33'612.0
2017-Sep-17 12:00N 37°46' E 023°29'1 1.2
2017-Sep-17 11:31N 37°47' E 023°30'713.0
2017-Sep-17 11:01N 37°52' E 023°34'611.0
2017-Sep-17 10:30N 37°57' E 023°39'0 0.6
2017-Sep-17 10:00N 37°57' E 023°38'612.5
2017-Sep-17 09:31N 37°52' E 023°34'612.2
2017-Sep-17 09:00N 37°46' E 023°29'0 0.7
2017-Sep-17 08:30N 37°47' E 023°29'612.8
2017-Sep-17 08:01N 37°52' E 023°34'611.8
2017-Sep-17 07:31N 37°57' E 023°39'0 0.0
2017-Sep-17 07:01N 37°57' E 023°39'0 0.0
2017-Sep-17 06:31N 37°57' E 023°39'0 0.0
2017-Sep-17 06:00N 37°57' E 023°39'0 0.0
2017-Sep-17 05:30N 37°57' E 023°39'0 0.0
2017-Sep-17 05:01N 37°57' E 023°39'0 0.0
2017-Sep-17 04:30N 37°57' E 023°39'0 0.0
2017-Sep-17 04:01N 37°57' E 023°39'0 0.0
2017-Sep-17 03:30N 37°57' E 023°39'0 0.0
2017-Sep-17 03:00N 37°57' E 023°39'0 0.0
2017-Sep-17 02:31N 37°57' E 023°39'0 0.0
2017-Sep-17 02:00N 37°57' E 023°39'0 0.0
2017-Sep-17 01:31N 37°57' E 023°39'0 0.0
2017-Sep-17 01:00N 37°57' E 023°39'0 0.0
2017-Sep-17 00:31N 37°57' E 023°39'0 0.0
2017-Sep-17 00:00N 37°57' E 023°39'0 0.0
2017-Sep-16 23:31N 37°57' E 023°39'0 0.0
2017-Sep-16 23:01N 37°57' E 023°39'0 0.0
2017-Sep-16 22:30N 37°57' E 023°39'0 0.0
2017-Sep-16 22:00N 37°57' E 023°39'0 0.0
2017-Sep-16 21:30N 37°57' E 023°39'0 0.0
2017-Sep-16 21:01N 37°57' E 023°39'0 0.0
2017-Sep-16 20:31N 37°57' E 023°39'0 0.0
2017-Sep-16 20:01N 37°57' E 023°39'0 0.0
2017-Sep-16 19:31N 37°57' E 023°39'0 0.0
2017-Sep-16 19:00N 37°57' E 023°39'0 0.0
2017-Sep-16 18:31N 37°57' E 023°39'0 0.0
2017-Sep-16 18:00N 37°57' E 023°39'0 0.0
2017-Sep-16 17:30N 37°57' E 023°39'0 0.0
2017-Sep-16 17:01N 37°57' E 023°39'0 0.0
2017-Sep-16 16:31N 37°57' E 023°39'0 0.0
2017-Sep-16 16:00N 37°57' E 023°39'0 0.0
2017-Sep-16 15:31N 37°57' E 023°39'0 0.0
2017-Sep-16 15:01N 37°57' E 023°39'0 0.0
2017-Sep-16 14:30N 37°57' E 023°39'0 0.0
2017-Sep-16 14:00N 37°57' E 023°39'0 0.0
2017-Sep-16 13:30N 37°57' E 023°39'1 1.0
2017-Sep-16 13:01N 37°56' E 023°38'612.6
2017-Sep-16 12:30N 37°51' E 023°33'611.8
2017-Sep-16 12:01N 37°46' E 023°29'1 1.1
2017-Sep-16 11:30N 37°47' E 023°30'612.8
2017-Sep-16 11:01N 37°52' E 023°34'611.4
2017-Sep-16 10:30N 37°57' E 023°39'1 1.5
2017-Sep-16 10:01N 37°56' E 023°38'612.9
2017-Sep-16 09:31N 37°51' E 023°33'611.0
2017-Sep-16 09:01N 37°46' E 023°29'1 1.1
2017-Sep-16 08:31N 37°47' E 023°30'612.7
2017-Sep-16 08:00N 37°52' E 023°34'611.4
2017-Sep-16 07:31N 37°57' E 023°39'0 0.0
2017-Sep-16 07:01N 37°57' E 023°39'0 0.0
2017-Sep-16 06:30N 37°57' E 023°39'0 0.0
2017-Sep-16 06:01N 37°57' E 023°39'0 0.0
2017-Sep-16 05:30N 37°57' E 023°39'0 0.0
2017-Sep-16 05:01N 37°57' E 023°39'0 0.0
2017-Sep-16 04:31N 37°57' E 023°39'0 0.0
2017-Sep-16 04:00N 37°57' E 023°39'0 0.0
2017-Sep-16 03:31N 37°57' E 023°39'0 0.0
2017-Sep-16 03:01N 37°57' E 023°39'0 0.0
2017-Sep-16 02:31N 37°57' E 023°39'0 0.0
2017-Sep-16 02:00N 37°57' E 023°39'0 0.0
2017-Sep-16 01:31N 37°57' E 023°39'0 0.0
2017-Sep-16 01:00N 37°57' E 023°39'0 0.0
2017-Sep-16 00:31N 37°57' E 023°39'0 0.0
2017-Sep-16 00:01N 37°57' E 023°39'0 0.0
2017-Sep-15 23:30N 37°57' E 023°39'0 0.0
2017-Sep-15 23:01N 37°57' E 023°39'0 0.0
2017-Sep-15 22:30N 37°57' E 023°39'0 0.0
2017-Sep-15 22:00N 37°57' E 023°39'0 0.0
2017-Sep-15 21:30N 37°57' E 023°39'0 0.0
2017-Sep-15 21:01N 37°57' E 023°39'0 0.0
2017-Sep-15 20:30N 37°57' E 023°39'0 0.0
2017-Sep-15 20:00N 37°57' E 023°39'0 0.0
2017-Sep-15 19:30N 37°57' E 023°39'0 0.0
2017-Sep-15 19:00N 37°57' E 023°39'0 0.0
2017-Sep-15 18:30N 37°57' E 023°39'0 0.0
2017-Sep-15 18:01N 37°57' E 023°39'0 0.0
2017-Sep-15 17:31N 37°57' E 023°39'0 0.7
2017-Sep-15 17:00N 37°57' E 023°38'612.3
2017-Sep-15 16:31N 37°52' E 023°33'612.4
2017-Sep-15 16:01N 37°46' E 023°29'0 0.7
2017-Sep-15 15:31N 37°47' E 023°29'612.7
2017-Sep-15 15:01N 37°52' E 023°33'611.9
2017-Sep-15 14:30N 37°57' E 023°39'0 0.0
2017-Sep-15 14:00N 37°57' E 023°39'0 0.0
2017-Sep-15 13:31N 37°57' E 023°39'0 0.8
2017-Sep-15 13:00N 37°57' E 023°38'612.4
2017-Sep-15 12:30N 37°51' E 023°33'612.1
2017-Sep-15 12:00N 37°46' E 023°29'1 1.3
2017-Sep-15 11:31N 37°47' E 023°30'612.7
2017-Sep-15 11:00N 37°52' E 023°34'611.2
2017-Sep-15 10:31N 37°57' E 023°39'1 1.1
2017-Sep-15 10:01N 37°56' E 023°38'612.0
2017-Sep-15 09:31N 37°52' E 023°34'612.2
2017-Sep-15 09:00N 37°46' E 023°29'0 0.9
2017-Sep-15 08:31N 37°47' E 023°30'612.7
2017-Sep-15 08:00N 37°52' E 023°34'611.6
2017-Sep-15 07:31N 37°57' E 023°39'0 0.0
2017-Sep-15 07:01N 37°57' E 023°39'0 0.0
2017-Sep-15 06:31N 37°57' E 023°39'0 0.0
2017-Sep-15 06:01N 37°57' E 023°39'0 0.0
2017-Sep-15 05:31N 37°57' E 023°39'0 0.0
2017-Sep-15 05:00N 37°57' E 023°39'0 0.0
2017-Sep-15 04:30N 37°57' E 023°39'0 0.0
2017-Sep-15 04:00N 37°57' E 023°39'0 0.0
2017-Sep-15 03:31N 37°57' E 023°39'0 0.0
2017-Sep-15 03:00N 37°57' E 023°39'0 0.0
2017-Sep-15 02:31N 37°57' E 023°39'0 0.0
2017-Sep-15 02:00N 37°57' E 023°39'0 0.0
2017-Sep-15 01:30N 37°57' E 023°39'0 0.0
2017-Sep-15 01:01N 37°57' E 023°39'0 0.0
2017-Sep-15 00:30N 37°57' E 023°39'0 0.0
2017-Sep-15 00:00N 37°57' E 023°39'0 0.0
2017-Sep-14 23:30N 37°57' E 023°39'0 0.0
2017-Sep-14 23:00N 37°57' E 023°39'0 0.0
2017-Sep-14 22:30N 37°57' E 023°39'0 0.0
2017-Sep-14 22:00N 37°57' E 023°39'0 0.0
2017-Sep-14 21:30N 37°57' E 023°39'0 0.0
2017-Sep-14 21:01N 37°57' E 023°39'0 0.0
2017-Sep-14 20:31N 37°57' E 023°39'0 0.0
2017-Sep-14 20:00N 37°57' E 023°39'0 0.0
2017-Sep-14 19:31N 37°57' E 023°39'0 0.0
2017-Sep-14 19:00N 37°57' E 023°39'0 0.0
2017-Sep-14 18:30N 37°57' E 023°39'0 0.0
2017-Sep-14 18:00N 37°57' E 023°39'0 0.0
2017-Sep-14 17:31N 37°57' E 023°39'0 0.0
2017-Sep-14 17:00N 37°57' E 023°39'0 0.0
2017-Sep-14 16:30N 37°57' E 023°39'0 0.0
2017-Sep-14 16:00N 37°57' E 023°39'0 0.0
2017-Sep-14 15:31N 37°57' E 023°39'0 0.0
2017-Sep-14 15:00N 37°57' E 023°39'0 0.0
2017-Sep-14 14:30N 37°57' E 023°39'0 0.0
2017-Sep-14 14:01N 37°57' E 023°39'0 0.0
2017-Sep-14 13:30N 37°57' E 023°39'0 0.5
2017-Sep-14 13:00N 37°57' E 023°38'612.7
2017-Sep-14 12:30N 37°51' E 023°33'612.1
2017-Sep-14 12:01N 37°46' E 023°29'1 1.7
2017-Sep-14 11:31N 37°47' E 023°30'612.7
2017-Sep-14 11:01N 37°52' E 023°34'510.8
2017-Sep-14 10:30N 37°57' E 023°39'0 0.0
2017-Sep-14 10:00N 37°57' E 023°39'0 0.0
2017-Sep-14 09:31N 37°57' E 023°39'0 0.0
2017-Sep-14 09:00N 37°57' E 023°39'0 0.0
2017-Sep-14 08:30N 37°57' E 023°39'0 0.0
2017-Sep-14 08:00N 37°57' E 023°39'0 0.0
2017-Sep-14 07:30N 37°57' E 023°39'0 0.6
2017-Sep-14 07:00N 37°57' E 023°38'612.6
2017-Sep-14 06:31N 37°52' E 023°33'612.3
2017-Sep-14 06:01N 37°46' E 023°29'4 8.4
2017-Sep-14 05:30N 37°50' E 023°32'612.8
2017-Sep-14 05:01N 37°55' E 023°36'2 2.4
2017-Sep-14 04:08N 37°57' E 023°39'0 0.0
2017-Sep-14 03:14N 37°57' E 023°39'0 0.0
2017-Sep-14 03:00N 37°57' E 023°39'0 0.0
2017-Sep-14 02:30N 37°57' E 023°39'0 0.0
2017-Sep-14 02:00N 37°57' E 023°39'0 0.0
2017-Sep-14 01:31N 37°57' E 023°39'0 0.0
2017-Sep-14 00:53N 37°57' E 023°39'0 0.0
2017-Sep-14 00:31N 37°57' E 023°39'0 0.0
2017-Sep-13 23:47N 37°57' E 023°39'0 0.0
2017-Sep-13 22:20N 37°57' E 023°39'0 0.0
2017-Sep-13 21:56N 37°57' E 023°39'0 0.0
2017-Sep-13 21:14N 37°57' E 023°39'0 0.0
2017-Sep-13 20:39N 37°57' E 023°39'0 0.0
2017-Sep-13 20:28N 37°57' E 023°39'0 0.0
2017-Sep-13 19:08N 37°57' E 023°39'0 0.0
2017-Sep-13 18:44N 37°57' E 023°39'0 0.0
2017-Sep-13 18:31N 37°57' E 023°39'0 0.0
2017-Sep-13 18:00N 37°57' E 023°39'0 0.0
2017-Sep-13 17:27N 37°57' E 023°39'0 0.0
2017-Sep-13 16:54N 37°57' E 023°39'0 0.0
2017-Sep-13 16:26N 37°57' E 023°39'0 0.0
2017-Sep-13 14:36N 37°57' E 023°39'0 0.0
2017-Sep-13 14:16N 37°57' E 023°39'0 0.0
2017-Sep-13 13:47N 37°57' E 023°39'0 0.0
2017-Sep-13 13:15N 37°57' E 023°39'0 0.4
2017-Sep-13 13:00N 37°57' E 023°38'612.6
2017-Sep-13 12:31N 37°52' E 023°34'612.4
2017-Sep-13 12:00N 37°46' E 023°29'1 1.2
2017-Sep-13 11:31N 37°47' E 023°30'612.9
2017-Sep-13 11:01N 37°52' E 023°34'611.2
2017-Sep-13 10:31N 37°57' E 023°39'0 0.0
2017-Sep-13 10:00N 37°57' E 023°39'0 0.0
2017-Sep-13 09:29N 37°57' E 023°39'0 0.0
2017-Sep-13 08:59N 37°57' E 023°39'0 0.0
2017-Sep-13 08:30N 37°57' E 023°39'0 0.0
2017-Sep-13 08:00N 37°57' E 023°39'0 0.0
2017-Sep-13 07:29N 37°57' E 023°39'1 1.1
2017-Sep-13 07:00N 37°56' E 023°38'612.6
2017-Sep-13 06:31N 37°51' E 023°33'611.7
2017-Sep-13 06:00N 37°46' E 023°29'4 7.1
2017-Sep-13 05:30N 37°49' E 023°32'613.0
2017-Sep-13 05:01N 37°55' E 023°36'3 2.5
2017-Sep-13 03:56N 37°57' E 023°39'0 0.0
2017-Sep-13 03:13N 37°57' E 023°39'0 0.0
2017-Sep-13 02:56N 37°57' E 023°39'0 0.0
2017-Sep-13 02:17N 37°57' E 023°39'0 0.0
2017-Sep-13 01:59N 37°57' E 023°39'0 0.0
2017-Sep-13 01:19N 37°57' E 023°39'0 0.0
2017-Sep-13 00:53N 37°57' E 023°39'0 0.0
2017-Sep-13 00:26N 37°57' E 023°39'0 0.0
2017-Sep-12 23:46N 37°57' E 023°39'0 0.0
2017-Sep-12 23:31N 37°57' E 023°39'0 0.0
2017-Sep-12 23:00N 37°57' E 023°39'0 0.0
2017-Sep-12 22:30N 37°57' E 023°39'0 0.0
2017-Sep-12 22:00N 37°57' E 023°39'0 0.0
2017-Sep-12 21:31N 37°57' E 023°39'0 0.0
2017-Sep-12 21:00N 37°57' E 023°39'0 0.0
2017-Sep-12 20:30N 37°57' E 023°39'0 0.0
2017-Sep-12 20:00N 37°57' E 023°39'0 0.0
2017-Sep-12 19:30N 37°57' E 023°39'0 0.0
2017-Sep-12 19:01N 37°57' E 023°39'0 0.0
2017-Sep-12 18:30N 37°57' E 023°39'0 0.0
2017-Sep-12 18:00N 37°57' E 023°39'0 0.0
2017-Sep-12 17:31N 37°57' E 023°39'0 0.0
2017-Sep-12 17:00N 37°57' E 023°39'0 0.0
2017-Sep-12 16:31N 37°57' E 023°39'0 0.0
2017-Sep-12 16:00N 37°57' E 023°39'0 0.0
2017-Sep-12 15:31N 37°57' E 023°39'0 0.0
2017-Sep-12 15:00N 37°57' E 023°39'0 0.0
2017-Sep-12 14:31N 37°57' E 023°39'0 0.0
2017-Sep-12 14:00N 37°57' E 023°39'0 0.0
2017-Sep-12 13:30N 37°57' E 023°39'0 0.5
2017-Sep-12 13:00N 37°57' E 023°38'612.7
2017-Sep-12 12:31N 37°52' E 023°33'612.1
2017-Sep-12 12:00N 37°46' E 023°29'0 1.0
2017-Sep-12 11:31N 37°47' E 023°30'713.1
2017-Sep-12 11:00N 37°52' E 023°34'611.0
2017-Sep-12 10:30N 37°57' E 023°39'0 0.0
2017-Sep-12 10:00N 37°57' E 023°39'0 0.0
2017-Sep-12 09:31N 37°57' E 023°39'0 0.0
2017-Sep-12 09:01N 37°57' E 023°39'0 0.0
2017-Sep-12 08:30N 37°57' E 023°39'0 0.0
2017-Sep-12 08:00N 37°57' E 023°39'0 0.0
2017-Sep-12 07:30N 37°57' E 023°39'0 0.9
2017-Sep-12 07:01N 37°56' E 023°38'712.4
2017-Sep-12 06:27N 37°51' E 023°33'511.9
2017-Sep-12 06:01N 37°46' E 023°29'4 7.5
2017-Sep-12 05:31N 37°49' E 023°32'713.2
2017-Sep-12 05:00N 37°55' E 023°36'2 4.6
2017-Sep-12 04:30N 37°57' E 023°39'0 0.0
2017-Sep-12 04:01N 37°57' E 023°39'0 0.0
2017-Sep-12 03:31N 37°57' E 023°39'0 0.0
2017-Sep-12 03:01N 37°57' E 023°39'0 0.0
2017-Sep-12 02:31N 37°57' E 023°39'0 0.0
2017-Sep-12 02:01N 37°57' E 023°39'0 0.0
2017-Sep-12 01:30N 37°57' E 023°39'0 0.0
2017-Sep-12 01:01N 37°57' E 023°39'0 0.0
2017-Sep-12 00:31N 37°57' E 023°39'0 0.0
2017-Sep-12 00:01N 37°57' E 023°39'0 0.0
2017-Sep-11 23:31N 37°57' E 023°39'0 0.0
2017-Sep-11 23:01N 37°57' E 023°39'0 0.0
2017-Sep-11 22:31N 37°57' E 023°39'0 0.0
2017-Sep-11 22:01N 37°57' E 023°39'0 0.0
2017-Sep-11 21:30N 37°57' E 023°39'0 0.0
2017-Sep-11 21:00N 37°57' E 023°39'0 0.0
2017-Sep-11 20:30N 37°57' E 023°39'0 0.0
2017-Sep-11 20:00N 37°57' E 023°39'0 0.0
2017-Sep-11 19:30N 37°57' E 023°39'0 0.0
2017-Sep-11 19:00N 37°57' E 023°39'0 0.0
2017-Sep-11 18:30N 37°57' E 023°39'0 0.0
2017-Sep-11 18:00N 37°57' E 023°39'0 0.0
2017-Sep-11 17:30N 37°57' E 023°39'0 0.0
2017-Sep-11 17:00N 37°57' E 023°39'0 0.0
2017-Sep-11 16:30N 37°57' E 023°39'0 0.0
2017-Sep-11 16:00N 37°57' E 023°39'0 0.0
2017-Sep-11 15:30N 37°57' E 023°39'0 0.0
2017-Sep-11 15:00N 37°57' E 023°39'0 0.0
2017-Sep-11 14:30N 37°57' E 023°39'0 0.0
2017-Sep-11 14:00N 37°57' E 023°39'0 0.0
2017-Sep-11 13:30N 37°57' E 023°39'0 0.5
2017-Sep-11 13:00N 37°57' E 023°38'612.5
2017-Sep-11 12:30N 37°52' E 023°33'612.4
2017-Sep-11 12:00N 37°46' E 023°29'1 2.0
2017-Sep-11 11:30N 37°47' E 023°30'613.1
2017-Sep-11 11:00N 37°53' E 023°34'510.3
2017-Sep-11 10:30N 37°57' E 023°39'0 0.0
2017-Sep-11 10:00N 37°57' E 023°39'0 0.0
2017-Sep-11 09:30N 37°57' E 023°39'0 0.0
2017-Sep-11 09:00N 37°57' E 023°39'0 0.0
2017-Sep-11 08:30N 37°57' E 023°39'0 0.0
2017-Sep-11 08:00N 37°57' E 023°39'0 0.0
2017-Sep-11 07:30N 37°57' E 023°39'1 1.0
2017-Sep-11 07:00N 37°56' E 023°38'912.6
2017-Sep-11 06:18N 37°49' E 023°31'310.2
2017-Sep-11 05:59N 37°46' E 023°29'3 7.1
2017-Sep-11 05:30N 37°49' E 023°31'713.3
2017-Sep-11 05:00N 37°55' E 023°36'3 5.2
2017-Sep-11 04:30N 37°57' E 023°39'0 0.0
2017-Sep-11 04:00N 37°57' E 023°39'0 0.0
2017-Sep-11 03:30N 37°57' E 023°39'0 0.0
2017-Sep-11 03:00N 37°57' E 023°39'0 0.0
2017-Sep-11 02:30N 37°57' E 023°39'0 0.0
2017-Sep-11 02:00N 37°57' E 023°39'0 0.0
2017-Sep-11 01:30N 37°57' E 023°39'0 0.0
2017-Sep-11 01:00N 37°57' E 023°39'0 0.0
2017-Sep-11 00:30N 37°57' E 023°39'0 0.0
2017-Sep-11 00:00N 37°57' E 023°39'0 0.0
2017-Sep-10 23:30N 37°57' E 023°39'0 0.0
2017-Sep-10 23:00N 37°57' E 023°39'0 0.0
2017-Sep-10 22:30N 37°57' E 023°39'0 0.0
2017-Sep-10 22:00N 37°57' E 023°39'0 0.0
2017-Sep-10 21:30N 37°57' E 023°39'0 0.0
2017-Sep-10 21:00N 37°57' E 023°39'0 0.0
2017-Sep-10 20:30N 37°57' E 023°39'0 0.0
2017-Sep-10 20:00N 37°57' E 023°39'0 0.0
2017-Sep-10 19:30N 37°57' E 023°39'0 0.0
2017-Sep-10 19:00N 37°57' E 023°39'0 0.0
2017-Sep-10 18:30N 37°57' E 023°39'0 0.0
2017-Sep-10 18:00N 37°57' E 023°39'0 0.0
2017-Sep-10 17:30N 37°57' E 023°39'4 8.4
2017-Sep-10 17:00N 37°54' E 023°35'612.6
2017-Sep-10 16:30N 37°48' E 023°31'2 3.3
2017-Sep-10 16:00N 37°47' E 023°30'3 6.6
2017-Sep-10 15:30N 37°44' E 023°33'1 2.5
2017-Sep-10 15:00N 37°45' E 023°34'1211.9
2017-Sep-10 14:00N 37°57' E 023°39'0 0.0
2017-Sep-10 13:30N 37°57' E 023°39'0 0.0
2017-Sep-10 13:00N 37°57' E 023°39'0 0.0
2017-Sep-10 12:30N 37°57' E 023°39'0 0.0
2017-Sep-10 12:00N 37°57' E 023°39'0 0.0
2017-Sep-10 11:30N 37°57' E 023°39'0 0.0
2017-Sep-10 11:00N 37°57' E 023°39'0 0.0
2017-Sep-10 10:30N 37°57' E 023°39'611.1
2017-Sep-10 10:00N 37°53' E 023°34'612.9
2017-Sep-10 09:30N 37°47' E 023°30'2 3.5
2017-Sep-10 09:00N 37°47' E 023°32'2 4.6
2017-Sep-10 08:30N 37°45' E 023°32'4 7.9
2017-Sep-10 08:00N 37°48' E 023°35'713.2
2017-Sep-10 07:30N 37°54' E 023°37'3 5.4
2017-Sep-10 07:00N 37°57' E 023°39'0 0.0
2017-Sep-10 06:30N 37°57' E 023°39'0 0.0
2017-Sep-10 06:00N 37°57' E 023°39'0 0.0
2017-Sep-10 05:30N 37°57' E 023°39'0 0.0
2017-Sep-10 05:00N 37°57' E 023°39'0 0.0
2017-Sep-10 04:30N 37°57' E 023°39'0 0.0
2017-Sep-10 04:00N 37°57' E 023°39'0 0.0
2017-Sep-10 03:30N 37°57' E 023°39'0 0.0
2017-Sep-10 03:00N 37°57' E 023°39'0 0.0
2017-Sep-10 02:30N 37°57' E 023°39'0 0.0
2017-Sep-10 02:00N 37°57' E 023°39'0 0.0
2017-Sep-10 01:30N 37°57' E 023°39'0 0.0
2017-Sep-10 01:00N 37°57' E 023°39'0 0.0
2017-Sep-10 00:30N 37°57' E 023°39'0 0.0
2017-Sep-10 00:00N 37°57' E 023°39'0 0.0
2017-Sep-09 23:30N 37°57' E 023°39'0 0.0
2017-Sep-09 23:00N 37°57' E 023°39'0 0.0
2017-Sep-09 22:30N 37°57' E 023°39'0 0.0
2017-Sep-09 22:00N 37°57' E 023°39'0 0.0
2017-Sep-09 21:30N 37°57' E 023°39'0 0.0
2017-Sep-09 21:00N 37°57' E 023°39'0 0.0
2017-Sep-09 20:30N 37°57' E 023°39'0 0.0
2017-Sep-09 20:00N 37°57' E 023°39'0 0.0
2017-Sep-09 19:30N 37°57' E 023°39'0 0.0
2017-Sep-09 19:00N 37°57' E 023°39'0 0.0
2017-Sep-09 18:30N 37°57' E 023°39'0 0.0
2017-Sep-09 18:00N 37°57' E 023°39'0 0.0
2017-Sep-09 17:30N 37°57' E 023°39'0 0.0
2017-Sep-09 17:00N 37°57' E 023°39'0 0.0
2017-Sep-09 16:30N 37°57' E 023°39'510.8
2017-Sep-09 16:00N 37°53' E 023°34'713.1
2017-Sep-09 15:30N 37°47' E 023°30'1 1.4
2017-Sep-09 15:00N 37°47' E 023°31'3 5.4
2017-Sep-09 14:30N 37°45' E 023°32'2 4.6
2017-Sep-09 14:00N 37°47' E 023°33'3 6.2
2017-Sep-09 13:30N 37°47' E 023°30'613.0
2017-Sep-09 13:00N 37°53' E 023°34'510.8
2017-Sep-09 12:30N 37°57' E 023°39'0 0.0
2017-Sep-09 12:00N 37°57' E 023°39'  

Dump ship's entire track history